createdAt,value
2023-05-05T00:02:24.579Z,98.09
2023-05-05T00:05:28.244Z,100.00
2023-05-05T00:08:32.159Z,100.00
2023-05-05T00:11:35.655Z,100.00
2023-05-05T00:14:39.415Z,100.00
2023-05-05T00:17:42.780Z,99.99
2023-05-05T00:20:47.700Z,100.00
2023-05-05T00:23:52.245Z,100.00
2023-05-05T00:26:55.493Z,100.00
2023-05-05T00:29:59.061Z,100.00
2023-05-05T00:33:02.347Z,100.00
2023-05-05T00:36:06.167Z,100.00
2023-05-05T00:39:10.072Z,100.00
2023-05-05T00:42:13.656Z,100.00
2023-05-05T00:45:18.985Z,100.00
2023-05-05T00:48:24.621Z,100.00
2023-05-05T00:51:28.957Z,100.00
2023-05-05T00:54:34.620Z,100.00
2023-05-05T00:57:38.071Z,100.00
2023-05-05T01:00:42.049Z,100.00
2023-05-05T01:03:45.888Z,100.00
2023-05-05T01:07:04.383Z,100.00
2023-05-05T01:10:20.404Z,100.00
2023-05-05T01:13:47.664Z,100.00
2023-05-05T01:17:08.833Z,100.00
2023-05-05T01:20:29.331Z,100.00
2023-05-05T01:23:57.591Z,100.00
2023-05-05T01:27:29.175Z,100.00
2023-05-05T01:31:06.851Z,100.00
2023-05-05T01:34:13.698Z,100.00
2023-05-05T01:37:24.821Z,100.00
2023-05-05T01:40:32.184Z,100.00
2023-05-05T01:43:37.307Z,100.00
2023-05-05T01:46:40.950Z,100.00
2023-05-05T01:49:47.406Z,100.00
2023-05-05T01:52:52.726Z,100.00
2023-05-05T01:55:57.723Z,100.00
2023-05-05T01:59:02.549Z,100.00
2023-05-05T02:02:09.325Z,100.00
2023-05-05T02:05:14.414Z,100.00
2023-05-05T02:08:18.878Z,100.00
2023-05-05T02:11:23.526Z,100.00
2023-05-05T02:14:30.825Z,100.00
2023-05-05T02:17:34.600Z,100.00
2023-05-05T02:20:39.806Z,100.00
2023-05-05T02:23:43.976Z,100.00
2023-05-05T02:26:50.745Z,100.00
2023-05-05T02:30:01.591Z,100.00
2023-05-05T02:33:11.515Z,100.00
2023-05-05T02:36:21.973Z,100.00
2023-05-05T02:39:35.769Z,100.00
2023-05-05T02:42:46.697Z,100.00
2023-05-05T02:45:50.621Z,100.00
2023-05-05T02:48:55.037Z,100.00
2023-05-05T02:51:58.299Z,100.00
2023-05-05T02:55:03.355Z,100.00
2023-05-05T02:58:14.240Z,100.00
2023-05-05T03:02:03.581Z,100.00
2023-05-05T03:05:17.449Z,100.00
2023-05-05T03:08:30.387Z,100.00
2023-05-05T03:11:37.463Z,100.00
2023-05-05T03:14:45.639Z,100.00
2023-05-05T03:17:50.627Z,100.00
2023-05-05T03:20:54.848Z,100.00
2023-05-05T03:23:58.752Z,100.00
2023-05-05T03:27:03.212Z,100.00
2023-05-05T03:30:08.212Z,100.00
2023-05-05T03:33:12.742Z,100.00
2023-05-05T03:36:16.282Z,100.00
2023-05-05T03:39:21.475Z,100.00
2023-05-05T03:42:25.342Z,100.00
2023-05-05T03:45:29.573Z,100.00
2023-05-05T03:48:34.379Z,100.00
2023-05-05T03:51:38.365Z,100.00
2023-05-05T03:54:42.609Z,100.00
2023-05-05T03:57:46.261Z,100.00
2023-05-05T04:00:49.586Z,100.00
2023-05-05T04:03:54.204Z,100.00
2023-05-05T04:06:57.429Z,100.00
2023-05-05T04:10:01.090Z,100.00
2023-05-05T04:13:04.490Z,100.00
2023-05-05T04:16:09.151Z,100.00
2023-05-05T04:19:13.351Z,100.00
2023-05-05T04:22:17.171Z,100.00
2023-05-05T04:25:20.204Z,100.00
2023-05-05T04:28:24.321Z,100.00
2023-05-05T04:31:28.248Z,100.00
2023-05-05T04:34:32.482Z,100.00
2023-05-05T04:37:35.941Z,100.00
2023-05-05T04:40:43.116Z,100.00
2023-05-05T04:43:48.494Z,100.00
2023-05-05T04:46:54.305Z,100.00
2023-05-05T04:49:58.132Z,100.00
2023-05-05T04:53:02.209Z,100.00
2023-05-05T04:56:05.662Z,100.00
2023-05-05T04:59:09.042Z,100.00
2023-05-05T05:02:12.361Z,100.00
2023-05-05T05:05:15.868Z,100.00
2023-05-05T05:08:19.195Z,100.00
2023-05-05T05:11:22.614Z,100.00
2023-05-05T05:14:26.071Z,100.00
2023-05-05T05:17:30.597Z,100.00
2023-05-05T05:20:34.557Z,100.00
2023-05-05T05:23:39.358Z,99.15
2023-05-05T05:26:42.751Z,99.36
2023-05-05T05:29:46.333Z,95.33
2023-05-05T05:32:49.913Z,93.68
2023-05-05T05:35:53.870Z,93.43
2023-05-05T05:38:59.866Z,93.09
2023-05-05T05:42:05.140Z,90.28
2023-05-05T05:45:10.373Z,91.80
2023-05-05T05:48:14.369Z,90.61
2023-05-05T05:51:17.688Z,84.58
2023-05-05T05:54:21.694Z,84.26
2023-05-05T05:57:24.948Z,83.69
2023-05-05T06:00:28.693Z,84.26
2023-05-05T06:03:32.758Z,76.55
2023-05-05T06:06:35.905Z,76.80
2023-05-05T06:09:39.545Z,75.35
2023-05-05T06:12:42.846Z,68.88
2023-05-05T06:15:46.466Z,72.43
2023-05-05T06:18:50.016Z,69.30
2023-05-05T06:21:54.094Z,69.18
2023-05-05T06:24:57.672Z,68.36
2023-05-05T06:28:02.164Z,67.94
2023-05-05T06:31:05.367Z,66.12
2023-05-05T06:34:09.844Z,63.17
2023-05-05T06:37:13.054Z,61.45
2023-05-05T06:40:17.054Z,61.90
2023-05-05T06:43:20.127Z,59.10
2023-05-05T06:46:24.088Z,57.46
2023-05-05T06:49:27.761Z,57.52
2023-05-05T06:52:31.114Z,55.28
2023-05-05T06:55:34.397Z,57.49
2023-05-05T06:58:38.117Z,54.98
2023-05-05T07:01:41.532Z,53.95
2023-05-05T07:04:44.922Z,55.01
2023-05-05T07:07:55.513Z,52.46
2023-05-05T07:11:01.131Z,53.88
2023-05-05T07:14:04.213Z,49.84
2023-05-05T07:17:07.577Z,50.46
2023-05-05T07:20:12.208Z,52.02
2023-05-05T07:23:16.218Z,49.09
2023-05-05T07:26:19.353Z,48.95
2023-05-05T07:29:22.740Z,48.66
2023-05-05T07:32:26.316Z,49.57
2023-05-05T07:35:31.541Z,48.03
2023-05-05T07:38:34.700Z,47.37
2023-05-05T07:41:38.696Z,49.12
2023-05-05T07:44:41.822Z,47.16
2023-05-05T07:47:45.430Z,48.84
2023-05-05T07:50:48.794Z,47.73
2023-05-05T07:53:52.341Z,46.12
2023-05-05T07:56:55.790Z,46.05
2023-05-05T07:59:59.305Z,45.96
2023-05-05T08:03:02.491Z,45.13
2023-05-05T08:06:11.017Z,46.15
2023-05-05T08:09:14.376Z,42.51
2023-05-05T08:12:19.284Z,44.66
2023-05-05T08:15:22.538Z,44.03
2023-05-05T08:18:26.663Z,43.84
2023-05-05T08:21:29.908Z,42.87
2023-05-05T08:24:33.402Z,42.56
2023-05-05T08:27:36.421Z,44.44
2023-05-05T08:30:39.751Z,43.58
2023-05-05T08:33:43.590Z,44.09
2023-05-05T08:36:49.171Z,43.79
2023-05-05T08:39:52.487Z,44.48
2023-05-05T08:42:56.393Z,43.58
2023-05-05T08:46:00.032Z,42.58
2023-05-05T08:49:05.626Z,42.46
2023-05-05T08:52:11.789Z,42.53
2023-05-05T08:55:26.903Z,42.88
2023-05-05T08:58:32.096Z,44.96
2023-05-05T09:01:36.427Z,43.85
2023-05-05T09:04:40.407Z,43.08
2023-05-05T09:07:45.295Z,44.23
2023-05-05T09:10:51.161Z,43.50
2023-05-05T09:17:25.281Z,45.73
2023-05-05T09:20:37.135Z,42.48
2023-05-05T09:23:40.580Z,42.17
2023-05-05T09:26:46.814Z,44.14
2023-05-05T09:29:50.371Z,41.72
2023-05-05T09:32:55.104Z,40.77
2023-05-05T09:35:58.630Z,41.87
2023-05-05T09:39:06.516Z,41.61
2023-05-05T09:42:19.206Z,43.40
2023-05-05T09:45:23.877Z,41.79
2023-05-05T09:48:33.122Z,42.16
2023-05-05T09:51:36.579Z,42.09
2023-05-05T09:54:42.289Z,42.53
2023-05-05T09:57:49.072Z,42.06
2023-05-05T10:00:53.027Z,42.63
2023-05-05T10:03:57.605Z,42.73
2023-05-05T10:07:00.975Z,43.88
2023-05-05T10:10:06.125Z,41.28
2023-05-05T10:13:11.785Z,39.88
2023-05-05T10:16:18.499Z,41.29
2023-05-05T10:19:23.631Z,39.18
2023-05-05T10:22:30.563Z,39.89
2023-05-05T10:25:42.610Z,38.87
2023-05-05T10:28:55.232Z,38.18
2023-05-05T10:32:56.830Z,36.80
2023-05-05T10:36:06.712Z,38.28
2023-05-05T10:39:11.316Z,36.70
2023-05-05T10:42:15.858Z,34.49
2023-05-05T10:45:19.227Z,36.57
2023-05-05T10:48:34.720Z,35.95
2023-05-05T10:51:52.491Z,37.63
2023-05-05T10:55:21.282Z,38.45
2023-05-05T10:58:46.989Z,37.31
2023-05-05T11:01:58.642Z,37.28
2023-05-05T11:05:23.392Z,35.98
2023-05-05T11:08:28.385Z,37.67
2023-05-05T11:12:05.112Z,35.06
2023-05-05T11:15:24.370Z,35.07
2023-05-05T11:18:31.646Z,35.81
2023-05-05T11:22:01.789Z,34.08
2023-05-05T11:25:40.898Z,33.78
2023-05-05T11:29:02.199Z,35.88
2023-05-05T11:32:14.457Z,35.86
2023-05-05T11:35:18.099Z,35.19
2023-05-05T11:38:27.022Z,35.09
2023-05-05T11:41:36.434Z,37.52
2023-05-05T11:44:39.821Z,35.42
2023-05-05T11:47:43.440Z,34.05
2023-05-05T11:50:46.700Z,34.10
2023-05-05T11:53:51.574Z,32.64
2023-05-05T11:56:59.527Z,33.57
2023-05-05T12:00:06.557Z,33.71
2023-05-05T12:03:10.214Z,32.98
2023-05-05T12:06:14.013Z,32.39
2023-05-05T12:09:19.555Z,34.46
2023-05-05T12:12:55.479Z,34.82
2023-05-05T12:16:13.064Z,34.14
2023-05-05T12:19:16.260Z,33.57
2023-05-05T12:22:27.250Z,33.25
2023-05-05T12:25:40.461Z,34.24
2023-05-05T12:28:46.654Z,34.18
2023-05-05T12:31:49.840Z,34.63
2023-05-05T12:34:54.815Z,34.74
2023-05-05T12:37:58.823Z,33.52
2023-05-05T12:41:03.052Z,34.25
2023-05-05T12:44:08.670Z,33.30
2023-05-05T12:47:12.514Z,34.10
2023-05-05T12:50:15.787Z,36.00
2023-05-05T12:53:24.321Z,32.38
2023-05-05T12:56:38.287Z,33.66
2023-05-05T12:59:51.210Z,33.73
2023-05-05T13:02:54.978Z,32.84
2023-05-05T13:05:58.830Z,32.88
2023-05-05T13:09:02.445Z,34.25
2023-05-05T13:12:08.744Z,33.46
2023-05-05T13:15:13.603Z,34.16
2023-05-05T13:18:17.659Z,34.79
2023-05-05T13:21:20.567Z,34.26
2023-05-05T13:24:38.043Z,35.78
2023-05-05T13:27:49.216Z,34.03
2023-05-05T13:30:55.913Z,33.13
2023-05-05T13:33:59.041Z,32.74
2023-05-05T13:37:02.513Z,30.82
2023-05-05T13:40:06.327Z,31.26
2023-05-05T13:43:10.470Z,31.28
2023-05-05T13:46:20.015Z,31.55
2023-05-05T13:49:23.958Z,30.68
2023-05-05T13:52:27.730Z,31.05
2023-05-05T13:55:32.968Z,30.69
2023-05-05T13:58:38.098Z,31.21
2023-05-05T14:01:41.786Z,31.04
2023-05-05T14:04:46.427Z,31.25
2023-05-05T14:07:50.705Z,31.42
2023-05-05T14:10:54.273Z,33.58
2023-05-05T14:13:57.814Z,34.18
2023-05-05T14:17:01.379Z,34.64
2023-05-05T14:20:05.311Z,33.91
2023-05-05T14:23:08.932Z,33.69
2023-05-05T14:26:11.988Z,33.81
2023-05-05T14:29:19.533Z,32.89
2023-05-05T14:32:23.227Z,32.74
2023-05-05T14:35:26.789Z,31.37
2023-05-05T14:38:29.998Z,32.79
2023-05-05T14:41:33.345Z,31.96
2023-05-05T14:44:36.766Z,32.11
2023-05-05T14:47:40.155Z,31.59
2023-05-05T14:50:43.240Z,32.39
2023-05-05T14:53:46.909Z,32.08
2023-05-05T14:56:50.387Z,32.59
2023-05-05T14:59:53.829Z,32.29
2023-05-05T15:02:57.143Z,31.76
2023-05-05T15:06:00.677Z,34.53
2023-05-05T15:09:05.961Z,33.75
2023-05-05T15:12:10.918Z,33.82
2023-05-05T15:15:14.142Z,33.50
2023-05-05T15:18:17.621Z,34.41
2023-05-05T15:21:21.041Z,33.65
2023-05-05T15:24:25.454Z,34.33
2023-05-05T15:27:28.674Z,33.87
2023-05-05T15:30:32.271Z,34.16
2023-05-05T15:33:35.880Z,35.43
2023-05-05T15:36:39.405Z,35.90
2023-05-05T15:39:42.492Z,36.06
2023-05-05T15:42:45.851Z,35.13
2023-05-05T15:45:49.195Z,33.96
2023-05-05T15:48:52.608Z,34.49
2023-05-05T15:51:55.948Z,34.93
2023-05-05T15:54:59.479Z,34.93
2023-05-05T15:58:02.428Z,35.93
2023-05-05T16:01:05.953Z,34.76
2023-05-05T16:04:09.457Z,35.16
2023-05-05T16:07:12.749Z,35.72
2023-05-05T16:10:17.675Z,35.90
2023-05-05T16:13:21.014Z,35.36
2023-05-05T16:16:24.483Z,35.99
2023-05-05T16:19:28.397Z,34.72
2023-05-05T16:22:31.931Z,35.11
2023-05-05T16:25:35.883Z,34.64
2023-05-05T16:28:39.440Z,35.38
2023-05-05T16:31:42.803Z,36.55
2023-05-05T16:34:46.545Z,35.73
2023-05-05T16:37:49.616Z,35.97
2023-05-05T16:40:53.137Z,37.18
2023-05-05T16:43:56.441Z,37.33
2023-05-05T16:46:59.765Z,37.47
2023-05-05T16:50:03.310Z,37.65
2023-05-05T16:53:06.809Z,37.51
2023-05-05T16:56:13.145Z,36.79
2023-05-05T16:59:18.436Z,38.02
2023-05-05T17:02:21.801Z,38.90
2023-05-05T17:05:25.417Z,39.47
2023-05-05T17:08:36.300Z,38.80
2023-05-05T17:11:40.552Z,39.41
2023-05-05T17:14:47.872Z,40.73
2023-05-05T17:17:51.431Z,42.24
2023-05-05T17:20:54.629Z,42.70
2023-05-05T17:23:58.167Z,43.58
2023-05-05T17:27:02.121Z,44.66
2023-05-05T17:30:06.358Z,46.25
2023-05-05T17:33:09.596Z,47.95
2023-05-05T17:36:14.026Z,48.82
2023-05-05T17:39:17.806Z,50.67
2023-05-05T17:42:23.165Z,51.83
2023-05-05T17:45:27.217Z,53.70
2023-05-05T17:48:30.728Z,55.03
2023-05-05T17:51:34.445Z,56.15
2023-05-05T17:54:37.788Z,57.13
2023-05-05T17:57:40.922Z,56.65
2023-05-05T18:00:44.366Z,57.15
2023-05-05T18:03:48.017Z,57.88
2023-05-05T18:06:51.371Z,58.83
2023-05-05T18:09:55.227Z,59.41
2023-05-05T18:12:58.520Z,60.26
2023-05-05T18:16:02.061Z,60.68
2023-05-05T18:19:05.361Z,61.49
2023-05-05T18:22:08.859Z,63.84
2023-05-05T18:25:13.360Z,65.75
2023-05-05T18:28:17.304Z,66.18
2023-05-05T18:31:20.670Z,67.20
2023-05-05T18:34:24.183Z,68.08
2023-05-05T18:37:28.054Z,69.24
2023-05-05T18:40:31.773Z,70.08
2023-05-05T18:43:35.028Z,70.34
2023-05-05T18:46:38.805Z,70.78
2023-05-05T18:49:42.165Z,71.03
2023-05-05T18:52:45.684Z,73.22
2023-05-05T18:55:49.507Z,74.05
2023-05-05T18:58:52.993Z,75.54
2023-05-05T19:01:56.228Z,77.23
2023-05-05T19:04:59.806Z,78.56
2023-05-05T19:08:03.676Z,78.68
2023-05-05T19:11:07.179Z,79.20
2023-05-05T19:14:12.793Z,79.91
2023-05-05T19:17:17.787Z,81.33
2023-05-05T19:20:22.031Z,81.83
2023-05-05T19:23:26.599Z,83.21
2023-05-05T19:26:31.894Z,82.83
2023-05-05T19:29:36.274Z,84.59
2023-05-05T19:32:39.736Z,85.00
2023-05-05T19:35:44.651Z,84.78
2023-05-05T19:38:48.348Z,83.61
2023-05-05T19:41:53.184Z,86.35
2023-05-05T19:44:56.541Z,87.52
2023-05-05T19:48:03.146Z,88.66
2023-05-05T19:51:07.201Z,89.33
2023-05-05T19:54:11.233Z,89.68
2023-05-05T19:57:15.149Z,88.64
2023-05-05T20:00:19.818Z,89.17
2023-05-05T20:03:23.825Z,90.81
2023-05-05T20:06:27.268Z,90.86
2023-05-05T20:09:30.849Z,90.24
2023-05-05T20:12:34.522Z,91.85
2023-05-05T20:15:38.221Z,92.82
2023-05-05T20:18:41.486Z,93.13
2023-05-05T20:21:46.006Z,93.20
2023-05-05T20:24:49.126Z,93.96
2023-05-05T20:27:52.851Z,94.44
2023-05-05T20:30:56.262Z,95.98
2023-05-05T20:33:59.909Z,96.68
2023-05-05T20:37:03.098Z,96.73
2023-05-05T20:40:07.862Z,98.41
2023-05-05T20:43:12.081Z,99.26
2023-05-05T20:46:16.301Z,100.00
2023-05-05T20:49:19.435Z,100.00
2023-05-05T20:52:22.822Z,100.00
2023-05-05T20:55:26.409Z,100.00
2023-05-05T20:58:30.322Z,100.00
2023-05-05T21:01:34.655Z,100.00
2023-05-05T21:04:38.256Z,100.00
2023-05-05T21:07:41.624Z,100.00
2023-05-05T21:10:45.067Z,100.00
2023-05-05T21:13:48.226Z,100.00
2023-05-05T21:16:52.109Z,100.00
2023-05-05T21:19:56.289Z,100.00
2023-05-05T21:22:59.692Z,100.00
2023-05-05T21:26:03.172Z,100.00
2023-05-05T21:29:06.916Z,100.00
2023-05-05T21:32:11.855Z,100.00
2023-05-05T21:35:15.275Z,100.00
2023-05-05T21:38:18.400Z,100.00
2023-05-05T21:41:23.341Z,100.00
2023-05-05T21:44:28.335Z,100.00
2023-05-05T21:47:31.706Z,100.00
2023-05-05T21:50:36.703Z,100.00
2023-05-05T21:53:40.869Z,100.00
2023-05-05T21:56:44.200Z,100.00
2023-05-05T21:59:47.434Z,100.00
2023-05-05T22:02:50.682Z,100.00
2023-05-05T22:05:55.496Z,100.00
2023-05-05T22:08:58.597Z,100.00
2023-05-05T22:12:02.664Z,100.00
2023-05-05T22:15:07.047Z,100.00
2023-05-05T22:18:10.714Z,100.00
2023-05-05T22:21:14.175Z,100.00
2023-05-05T22:24:17.556Z,100.00
2023-05-05T22:27:20.485Z,100.00
2023-05-05T22:30:23.860Z,100.00
2023-05-05T22:33:27.351Z,100.00
2023-05-05T22:36:31.563Z,100.00
2023-05-05T22:39:35.031Z,100.00
2023-05-05T22:42:38.696Z,100.00
2023-05-05T22:45:42.223Z,100.00
2023-05-05T22:48:46.247Z,100.00
2023-05-05T22:51:49.342Z,100.00
2023-05-05T22:54:54.004Z,100.00
2023-05-05T22:57:57.215Z,100.00
2023-05-05T23:01:01.667Z,100.00
2023-05-05T23:04:05.153Z,100.00
2023-05-05T23:07:08.482Z,100.00
2023-05-05T23:10:12.004Z,100.00
2023-05-05T23:13:15.436Z,100.00
2023-05-05T23:16:19.348Z,100.00
2023-05-05T23:19:24.255Z,100.00
2023-05-05T23:22:27.697Z,100.00
2023-05-05T23:25:31.177Z,100.00
2023-05-05T23:28:34.238Z,100.00
2023-05-05T23:31:37.749Z,100.00
2023-05-05T23:34:40.885Z,100.00
2023-05-05T23:37:44.325Z,100.00
2023-05-05T23:40:47.758Z,100.00
2023-05-05T23:43:51.504Z,100.00
2023-05-05T23:46:54.716Z,100.00
2023-05-05T23:49:58.132Z,100.00
2023-05-05T23:53:01.268Z,100.00
2023-05-05T23:56:05.205Z,100.00
2023-05-05T23:59:08.381Z,100.00
